createdAt,value
2019-05-15T00:00:41.241Z,42.45
2019-05-15T00:02:49.130Z,43.58
2019-05-15T00:04:58.513Z,39.38
2019-05-15T00:07:08.806Z,42.80
2019-05-15T00:09:18.885Z,40.65
2019-05-15T00:11:25.962Z,38.88
2019-05-15T00:13:33.983Z,29.72
2019-05-15T00:15:42.858Z,39.75
2019-05-15T00:17:50.881Z,37.15
2019-05-15T00:19:58.765Z,37.53
2019-05-15T00:22:08.603Z,44.93
2019-05-15T00:24:17.876Z,45.03
2019-05-15T00:26:26.127Z,42.08
2019-05-15T00:28:34.114Z,36.50
2019-05-15T00:30:42.148Z,33.00
2019-05-15T00:32:50.355Z,37.95
2019-05-15T00:34:58.430Z,40.73
2019-05-15T00:37:08.913Z,39.03
2019-05-15T00:39:16.099Z,46.23
2019-05-15T00:41:24.332Z,24.50
2019-05-15T00:43:32.164Z,45.92
2019-05-15T00:45:40.097Z,42.00
2019-05-15T00:47:48.750Z,39.98
2019-05-15T00:49:58.067Z,42.43
2019-05-15T00:52:11.774Z,41.50
2019-05-15T00:54:15.966Z,40.85
2019-05-15T00:56:23.854Z,35.05
2019-05-15T00:58:31.737Z,46.02
2019-05-15T01:00:43.515Z,42.10
2019-05-15T01:02:51.391Z,51.37
2019-05-15T01:04:59.409Z,38.95
2019-05-15T01:07:08.345Z,42.98
2019-05-15T01:09:18.717Z,52.60
2019-05-15T01:11:28.475Z,50.17
2019-05-15T01:13:38.718Z,52.27
2019-05-15T01:15:48.945Z,57.30
2019-05-15T01:17:58.285Z,52.30
2019-05-15T01:20:08.510Z,51.50
2019-05-15T01:22:16.704Z,48.35
2019-05-15T01:24:24.900Z,55.73
2019-05-15T01:26:32.911Z,55.67
2019-05-15T01:28:40.700Z,54.53
2019-05-15T01:30:48.851Z,44.30
2019-05-15T01:32:59.065Z,39.98
2019-05-15T01:35:09.517Z,41.63
2019-05-15T01:37:18.908Z,42.17
2019-05-15T01:39:28.925Z,47.85
2019-05-15T01:41:38.474Z,42.58
2019-05-15T01:43:45.908Z,37.25
2019-05-15T01:45:53.823Z,39.67
2019-05-15T01:48:01.707Z,35.40
2019-05-15T01:50:10.312Z,30.77
2019-05-15T01:52:18.790Z,28.92
2019-05-15T01:54:28.958Z,32.28
2019-05-15T01:56:38.760Z,33.48
2019-05-15T01:58:48.676Z,28.60
2019-05-15T02:00:58.808Z,26.62
2019-05-15T02:03:06.474Z,31.05
2019-05-15T02:05:15.095Z,32.93
2019-05-15T02:07:22.866Z,29.40
2019-05-15T02:09:30.752Z,32.93
2019-05-15T02:11:38.763Z,30.32
2019-05-15T02:13:48.031Z,37.93
2019-05-15T02:15:58.905Z,33.23
2019-05-15T02:18:08.429Z,34.65
2019-05-15T02:20:18.762Z,33.23
2019-05-15T02:22:28.297Z,28.27
2019-05-15T02:24:38.846Z,28.80
2019-05-15T02:26:48.168Z,27.93
2019-05-15T02:28:55.692Z,33.33
2019-05-15T02:31:03.615Z,22.42
2019-05-15T02:33:11.671Z,32.28
2019-05-15T02:35:19.614Z,34.55
2019-05-15T02:37:29.345Z,30.85
2019-05-15T02:39:38.844Z,20.35
2019-05-15T02:41:49.163Z,25.97
2019-05-15T02:43:59.109Z,23.77
2019-05-15T02:46:06.207Z,26.02
2019-05-15T02:48:15.096Z,26.70
2019-05-15T02:50:23.316Z,27.05
2019-05-15T02:52:31.275Z,25.12
2019-05-15T02:54:39.954Z,23.15
2019-05-15T02:56:49.531Z,26.42
2019-05-15T02:59:00.036Z,24.87
2019-05-15T03:01:09.316Z,26.27
2019-05-15T03:03:17.001Z,20.15
2019-05-15T03:05:25.002Z,23.45
2019-05-15T03:07:32.921Z,17.60
2019-05-15T03:09:40.922Z,21.68
2019-05-15T03:11:49.700Z,21.82
2019-05-15T03:13:59.274Z,21.57
2019-05-15T03:16:10.124Z,19.07
2019-05-15T03:18:19.431Z,13.13
2019-05-15T03:20:29.798Z,16.85
2019-05-15T03:22:39.689Z,13.98
2019-05-15T03:24:46.431Z,14.95
2019-05-15T03:26:55.630Z,14.65
2019-05-15T03:29:03.732Z,14.68
2019-05-15T03:31:33.082Z,10.03
2019-05-15T03:33:27.837Z,10.38
2019-05-15T03:35:32.894Z,13.15
2019-05-15T03:37:40.657Z,8.25
2019-05-15T03:39:51.850Z,8.00
2019-05-15T03:41:58.882Z,10.03
2019-05-15T03:44:09.537Z,7.72
2019-05-15T03:46:19.679Z,9.95
2019-05-15T03:48:28.692Z,9.53
2019-05-15T03:50:35.760Z,9.48
2019-05-15T03:52:43.799Z,13.20
2019-05-15T03:54:51.904Z,13.83
2019-05-15T03:56:59.969Z,15.95
2019-05-15T03:59:09.325Z,17.73
2019-05-15T04:01:30.036Z,19.60
2019-05-15T04:03:29.915Z,15.32
2019-05-15T04:05:39.142Z,22.35
2019-05-15T04:07:49.601Z,25.35
2019-05-15T04:09:58.760Z,21.60
2019-05-15T04:12:09.324Z,28.17
2019-05-15T04:14:19.137Z,39.55
2019-05-15T04:16:29.314Z,26.60
2019-05-15T04:18:39.358Z,28.20
2019-05-15T04:20:49.172Z,20.30
2019-05-15T04:22:55.729Z,31.05
2019-05-15T04:25:05.721Z,31.17
2019-05-15T04:27:14.646Z,35.85
2019-05-15T04:29:22.498Z,40.23
2019-05-15T04:31:49.850Z,49.25
2019-05-15T04:33:40.584Z,38.67
2019-05-15T04:35:49.745Z,34.90
2019-05-15T04:37:59.681Z,49.20
2019-05-15T04:40:09.458Z,26.85
2019-05-15T04:42:20.111Z,50.85
2019-05-15T04:56:32.328Z,83.07
2019-05-15T05:07:41.021Z,136.22
2019-05-15T05:11:38.314Z,138.45
2019-05-15T05:15:24.208Z,162.12
2019-05-15T05:18:41.225Z,177.87
2019-05-15T05:20:49.580Z,160.82
2019-05-15T05:22:58.380Z,105.10
2019-05-15T05:25:08.656Z,147.53
2019-05-15T05:27:18.258Z,147.32
2019-05-15T05:29:28.005Z,163.20
2019-05-15T05:31:38.870Z,160.72
2019-05-15T05:33:48.504Z,137.70
2019-05-15T05:35:58.168Z,142.60
2019-05-15T05:38:07.743Z,127.97
2019-05-15T05:40:18.789Z,124.75
2019-05-15T05:42:25.953Z,78.65
2019-05-15T05:44:33.910Z,41.08
2019-05-15T05:46:41.941Z,68.15
2019-05-15T05:48:50.862Z,80.05
2019-05-15T05:50:58.813Z,91.15
2019-05-15T05:53:08.828Z,99.07
2019-05-15T05:55:17.872Z,77.78
2019-05-15T05:57:27.856Z,78.67
2019-05-15T05:59:35.329Z,79.37
2019-05-15T06:01:44.341Z,66.80
2019-05-15T06:03:52.377Z,65.90
2019-05-15T06:06:00.209Z,65.28
2019-05-15T06:08:09.004Z,65.60
2019-05-15T06:10:18.279Z,53.55
2019-05-15T06:12:28.180Z,53.83
2019-05-15T06:14:38.014Z,46.88
2019-05-15T06:16:47.991Z,40.48
2019-05-15T06:18:58.470Z,35.78
2019-05-15T06:21:08.811Z,29.63
2019-05-15T06:23:22.168Z,24.30
2019-05-15T06:25:25.473Z,29.70
2019-05-15T06:27:33.433Z,22.27
2019-05-15T06:29:41.387Z,26.42
2019-05-15T06:31:49.557Z,25.97
2019-05-15T06:33:58.688Z,24.98
2019-05-15T06:36:08.891Z,19.23
2019-05-15T06:38:19.305Z,23.22
2019-05-15T06:40:28.938Z,24.35
2019-05-15T06:42:39.384Z,26.17
2019-05-15T06:44:48.330Z,27.35
2019-05-15T06:46:58.578Z,29.18
2019-05-15T06:49:05.856Z,28.00
2019-05-15T06:51:13.843Z,26.23
2019-05-15T06:53:21.827Z,18.85
2019-05-15T06:55:29.714Z,22.32
2019-05-15T06:57:39.717Z,15.00
2019-05-15T06:59:48.457Z,22.37
2019-05-15T07:01:59.461Z,22.30
2019-05-15T07:04:08.404Z,25.02
2019-05-15T07:06:18.182Z,23.60
2019-05-15T07:08:28.840Z,22.65
2019-05-15T07:10:37.747Z,28.27
2019-05-15T07:12:49.168Z,29.77
2019-05-15T07:14:58.058Z,26.82
2019-05-15T07:17:05.512Z,32.23
2019-05-15T07:19:13.496Z,26.93
2019-05-15T07:21:21.643Z,27.52
2019-05-15T07:23:30.674Z,23.77
2019-05-15T07:25:39.230Z,20.55
2019-05-15T07:27:47.945Z,26.50
2019-05-15T07:29:58.217Z,26.68
2019-05-15T07:32:08.056Z,24.75
2019-05-15T07:34:15.739Z,28.92
2019-05-15T07:36:23.762Z,36.98
2019-05-15T07:38:31.667Z,36.15
2019-05-15T07:40:39.669Z,36.65
2019-05-15T07:42:49.039Z,43.20
2019-05-15T07:44:58.806Z,40.00
2019-05-15T07:47:08.891Z,36.50
2019-05-15T07:49:18.179Z,38.00
2019-05-15T07:51:28.487Z,46.10
2019-05-15T07:53:38.208Z,49.35
2019-05-15T07:55:45.514Z,48.25
2019-05-15T07:57:53.406Z,45.70
2019-05-15T08:00:01.364Z,56.90
2019-05-15T08:02:09.861Z,55.98
2019-05-15T08:04:26.188Z,59.77
2019-05-15T08:06:28.993Z,59.65
2019-05-15T08:08:39.403Z,51.18
2019-05-15T08:10:48.865Z,69.70
2019-05-15T08:12:58.141Z,59.33
2019-05-15T08:15:15.070Z,72.50
2019-05-15T08:17:22.960Z,72.80
2019-05-15T08:19:32.021Z,63.10
2019-05-15T08:21:39.944Z,75.60
2019-05-15T08:23:48.425Z,85.15
2019-05-15T08:25:57.993Z,69.00
2019-05-15T08:28:08.775Z,69.65
2019-05-15T08:30:18.896Z,65.70
2019-05-15T08:32:30.062Z,69.97
2019-05-15T08:34:38.679Z,63.63
2019-05-15T08:36:48.279Z,43.63
2019-05-15T08:38:59.068Z,100.92
2019-05-15T08:41:11.140Z,65.32
2019-05-15T08:43:18.149Z,66.53
2019-05-15T08:45:28.148Z,97.62
2019-05-15T08:47:38.399Z,51.37
2019-05-15T08:49:48.370Z,17.60
2019-05-15T08:51:58.238Z,48.30
2019-05-15T08:54:05.755Z,42.33
2019-05-15T08:56:14.878Z,46.90
2019-05-15T08:58:22.953Z,51.02
2019-05-15T09:00:31.033Z,51.20
2019-05-15T09:02:39.147Z,53.20
2019-05-15T09:04:48.687Z,47.58
2019-05-15T09:07:01.026Z,54.03
2019-05-15T09:09:09.554Z,57.53
2019-05-15T09:11:19.259Z,69.85
2019-05-15T09:13:29.301Z,69.70
2019-05-15T09:15:39.581Z,64.12
2019-05-15T09:17:48.813Z,54.25
2019-05-15T09:19:58.837Z,56.15
2019-05-15T09:22:09.051Z,64.75
2019-05-15T09:24:16.499Z,64.30
2019-05-15T09:26:24.410Z,51.60
2019-05-15T09:28:32.358Z,61.15
2019-05-15T09:30:40.847Z,54.03
2019-05-15T09:32:48.774Z,44.95
2019-05-15T09:34:59.299Z,42.13
2019-05-15T09:37:08.540Z,41.18
2019-05-15T09:39:18.264Z,43.08
2019-05-15T09:41:26.010Z,43.17
2019-05-15T09:43:33.960Z,40.78
2019-05-15T09:45:41.872Z,42.83
2019-05-15T09:47:49.760Z,31.17
2019-05-15T09:49:58.886Z,32.73
2019-05-15T09:52:09.019Z,32.80
2019-05-15T09:54:19.075Z,16.48
2019-05-15T09:56:29.091Z,26.48
2019-05-15T09:58:38.194Z,22.13
2019-05-15T10:00:52.336Z,21.02
2019-05-15T10:02:56.473Z,22.32
2019-05-15T10:05:10.424Z,27.13
2019-05-15T10:07:15.082Z,20.60
2019-05-15T10:09:23.142Z,17.55
2019-05-15T10:11:31.062Z,19.07
2019-05-15T10:13:39.427Z,17.42
2019-05-15T10:15:50.844Z,13.80
2019-05-15T10:17:59.782Z,16.67
2019-05-15T10:20:09.214Z,15.90
2019-05-15T10:22:18.650Z,15.85
2019-05-15T10:24:28.079Z,15.72
2019-05-15T10:26:36.158Z,15.95
2019-05-15T10:28:45.043Z,13.58
2019-05-15T10:30:54.120Z,14.00
2019-05-15T10:33:02.107Z,13.28
2019-05-15T10:35:24.688Z,9.38
2019-05-15T10:37:20.097Z,13.00
2019-05-15T10:39:28.840Z,12.30
2019-05-15T10:41:38.815Z,10.75
2019-05-15T10:43:54.621Z,14.18
2019-05-15T10:45:58.736Z,15.30
2019-05-15T10:48:09.409Z,10.55
2019-05-15T10:50:19.071Z,24.70
2019-05-15T10:52:28.693Z,89.65
2019-05-15T10:54:38.162Z,52.78
2019-05-15T10:56:46.168Z,37.25
2019-05-15T10:58:54.134Z,54.85
2019-05-15T11:01:03.379Z,22.30
2019-05-15T11:03:12.737Z,17.02
2019-05-15T11:05:21.033Z,9.05
2019-05-15T11:07:28.988Z,20.02
2019-05-15T11:09:40.528Z,18.00
2019-05-15T11:11:51.209Z,38.65
2019-05-15T11:14:00.288Z,14.20
2019-05-15T11:16:07.548Z,22.00
2019-05-15T11:18:15.338Z,12.40
2019-05-15T11:20:23.636Z,13.35
2019-05-15T11:22:31.658Z,14.65
2019-05-15T11:24:39.613Z,15.45
2019-05-15T11:26:50.008Z,9.55
2019-05-15T11:28:58.785Z,12.35
2019-05-15T11:31:09.990Z,10.23
2019-05-15T11:33:18.815Z,11.45
2019-05-15T11:35:28.371Z,11.83
2019-05-15T11:37:35.654Z,11.18
2019-05-15T11:39:46.550Z,16.35
2019-05-15T11:41:53.156Z,14.47
2019-05-15T11:44:01.058Z,17.70
2019-05-15T11:46:09.988Z,13.72
2019-05-15T11:48:20.636Z,14.70
2019-05-15T11:50:29.397Z,19.82
2019-05-15T11:52:40.275Z,13.30
2019-05-15T11:54:49.355Z,27.42
2019-05-15T11:56:59.423Z,14.33
2019-05-15T11:59:08.527Z,11.50
2019-05-15T12:01:19.055Z,17.52
2019-05-15T12:03:28.846Z,12.55
2019-05-15T12:05:38.305Z,16.00
2019-05-15T12:07:47.835Z,18.75
2019-05-15T12:09:58.035Z,51.15
2019-05-15T12:12:08.802Z,42.25
2019-05-15T12:14:19.276Z,15.03
2019-05-15T12:16:28.773Z,21.65
2019-05-15T12:18:35.663Z,25.97
2019-05-15T12:20:44.596Z,21.05
2019-05-15T12:22:52.567Z,20.95
2019-05-15T12:25:01.240Z,15.80
2019-05-15T12:27:17.450Z,39.08
2019-05-15T12:29:19.260Z,80.85
2019-05-15T12:31:27.148Z,33.08
2019-05-15T12:33:38.437Z,24.27
2019-05-15T12:35:50.286Z,17.05
2019-05-15T12:37:57.239Z,10.32
2019-05-15T13:01:45.970Z,26.10
2019-05-15T13:03:54.849Z,20.85
2019-05-15T13:06:02.690Z,110.92
2019-05-15T13:08:11.144Z,23.07
2019-05-15T13:10:19.474Z,22.93
2019-05-15T13:12:28.806Z,28.73
2019-05-15T13:14:38.942Z,76.53
2019-05-15T13:16:48.072Z,63.95
2019-05-15T13:18:56.132Z,56.18
2019-05-15T13:21:04.552Z,37.70
2019-05-15T13:23:12.447Z,64.22
2019-05-15T13:25:23.535Z,21.90
2019-05-15T13:27:31.552Z,39.03
2019-05-15T13:29:40.328Z,43.38
2019-05-15T13:31:48.253Z,51.95
2019-05-15T13:33:58.580Z,47.55
2019-05-15T13:36:05.816Z,48.20
2019-05-15T13:38:13.756Z,48.83
2019-05-15T13:40:34.037Z,51.48
2019-05-15T13:42:32.019Z,55.45
2019-05-15T13:44:40.038Z,51.65
2019-05-15T13:46:48.033Z,59.03
2019-05-15T13:48:55.919Z,73.20
2019-05-15T13:51:04.105Z,81.55
2019-05-15T13:53:12.019Z,47.85
2019-05-15T13:55:25.914Z,49.77
2019-05-15T13:57:29.960Z,48.35
2019-05-15T13:59:39.489Z,47.30
2019-05-15T14:01:48.679Z,49.98
2019-05-15T14:03:58.839Z,37.67
2019-05-15T14:06:09.097Z,33.02
2019-05-15T14:08:17.987Z,72.10
2019-05-15T14:10:26.004Z,137.32
2019-05-15T14:12:34.926Z,57.67
2019-05-15T14:14:43.024Z,237.08
2019-05-15T14:16:51.068Z,107.40
2019-05-15T14:18:59.006Z,111.22
2019-05-15T14:21:08.889Z,121.60
2019-05-15T14:23:18.572Z,98.67
2019-05-15T14:25:26.720Z,22.32
2019-05-15T14:27:34.687Z,28.90
2019-05-15T14:29:42.611Z,78.45
2019-05-15T14:31:50.567Z,28.02
2019-05-15T14:33:58.457Z,35.70
2019-05-15T14:36:08.392Z,72.92
2019-05-15T14:38:18.077Z,100.87
2019-05-15T14:40:26.123Z,36.83
2019-05-15T14:42:34.138Z,65.92
2019-05-15T14:44:42.031Z,46.83
2019-05-15T14:46:51.010Z,47.53
2019-05-15T14:48:59.101Z,62.00
2019-05-15T14:51:08.686Z,113.92
2019-05-15T14:53:18.668Z,86.50
2019-05-15T14:55:32.378Z,62.67
2019-05-15T14:57:38.903Z,156.78
2019-05-15T14:59:45.717Z,125.82
2019-05-15T15:01:53.670Z,151.60
2019-05-15T15:04:01.774Z,99.35
2019-05-15T15:06:09.724Z,109.97
2019-05-15T15:08:24.594Z,68.40
2019-05-15T15:10:29.087Z,93.10
2019-05-15T15:12:39.746Z,56.83
2019-05-15T15:14:48.543Z,36.93
2019-05-15T15:16:56.316Z,10.30
2019-05-15T15:19:04.431Z,20.85
2019-05-15T15:21:13.422Z,37.80
2019-05-15T15:23:21.410Z,89.05
2019-05-15T15:25:29.333Z,63.75
2019-05-15T15:27:38.777Z,60.25
2019-05-15T15:29:49.566Z,18.45
2019-05-15T15:31:58.982Z,65.28
2019-05-15T15:34:08.621Z,58.13
2019-05-15T15:36:16.841Z,37.88
2019-05-15T15:38:37.556Z,64.35
2019-05-15T15:40:34.798Z,97.27
2019-05-15T15:42:42.670Z,31.48
2019-05-15T15:44:50.558Z,31.27
2019-05-15T15:46:59.162Z,80.32
2019-05-15T15:49:08.788Z,62.67
2019-05-15T15:51:18.105Z,45.40
2019-05-15T15:53:28.552Z,66.75
2019-05-15T15:55:38.270Z,45.20
2019-05-15T15:57:45.576Z,103.10
2019-05-15T15:59:53.625Z,112.52
2019-05-15T16:02:01.524Z,107.65
2019-05-15T16:04:09.567Z,100.53
2019-05-15T16:06:18.780Z,79.42
2019-05-15T16:08:28.504Z,84.05
2019-05-15T16:10:37.968Z,54.38
2019-05-15T16:12:46.180Z,143.87
2019-05-15T16:14:54.078Z,56.58
2019-05-15T16:17:02.194Z,57.90
2019-05-15T16:19:10.216Z,30.97
2019-05-15T16:21:19.404Z,45.40
2019-05-15T16:23:28.278Z,75.65
2019-05-15T16:25:38.721Z,48.95
2019-05-15T16:27:48.840Z,81.28
2019-05-15T16:29:58.505Z,95.45
2019-05-15T16:32:08.580Z,57.50
2019-05-15T16:34:18.731Z,17.55
2019-05-15T16:36:26.401Z,22.37
2019-05-15T16:38:34.389Z,58.28
2019-05-15T16:40:42.259Z,61.23
2019-05-15T16:42:50.601Z,63.63
2019-05-15T16:44:58.600Z,65.08
2019-05-15T16:47:08.460Z,44.30
2019-05-15T16:49:18.714Z,72.60
2019-05-15T16:51:28.828Z,49.38
2019-05-15T16:53:38.299Z,71.05
2019-05-15T16:55:48.077Z,43.00
2019-05-15T16:57:58.379Z,176.05
2019-05-15T17:00:11.015Z,137.70
2019-05-15T17:02:19.010Z,136.90
2019-05-15T17:04:28.758Z,109.50
2019-05-15T17:06:38.669Z,47.80
2019-05-15T17:08:48.709Z,65.47
2019-05-15T17:10:58.619Z,40.90
2019-05-15T17:13:08.761Z,26.30
2019-05-15T17:15:17.763Z,81.00
2019-05-15T17:17:27.492Z,40.33
2019-05-15T17:19:36.534Z,56.83
2019-05-15T17:21:44.556Z,68.55
2019-05-15T17:23:52.896Z,76.10
2019-05-15T17:26:01.427Z,173.02
2019-05-15T17:28:09.343Z,60.25
2019-05-15T17:30:18.351Z,57.48
2019-05-15T17:32:29.032Z,114.50
2019-05-15T17:34:37.956Z,33.50
2019-05-15T17:36:48.756Z,27.98
2019-05-15T17:38:57.911Z,42.00
2019-05-15T17:41:08.155Z,38.58
2019-05-15T17:43:17.628Z,35.90
2019-05-15T17:45:27.870Z,38.30
2019-05-15T17:47:35.124Z,100.87
2019-05-15T17:49:43.072Z,111.35
2019-05-15T17:51:50.965Z,70.83
2019-05-15T17:53:58.953Z,89.10
2019-05-15T17:56:07.125Z,82.47
2019-05-15T17:58:15.019Z,62.60
2019-05-15T18:00:23.618Z,63.17
2019-05-15T18:02:31.887Z,34.30
2019-05-15T18:04:39.678Z,52.98
2019-05-15T18:06:48.435Z,69.65
2019-05-15T18:08:59.345Z,60.43
2019-05-15T18:11:08.079Z,77.50
2019-05-15T18:13:16.113Z,29.72
2019-05-15T18:15:24.117Z,22.85
2019-05-15T18:17:32.376Z,29.12
2019-05-15T18:19:40.265Z,28.30
2019-05-15T18:21:49.871Z,56.92
2019-05-15T18:23:58.682Z,75.08
2019-05-15T18:26:08.846Z,50.50
2019-05-15T18:28:18.621Z,33.55
2019-05-15T18:30:28.330Z,31.15
2019-05-15T18:32:39.256Z,30.48
2019-05-15T18:34:48.801Z,29.92
2019-05-15T18:36:57.881Z,32.95
2019-05-15T18:39:08.430Z,34.55
2019-05-15T18:41:18.403Z,29.00
2019-05-15T18:43:28.445Z,34.73
2019-05-15T18:45:38.164Z,34.38
2019-05-15T18:47:47.943Z,37.78
2019-05-15T18:50:05.133Z,37.75
2019-05-15T18:52:05.647Z,43.75
2019-05-15T18:54:13.636Z,32.23
2019-05-15T18:56:21.710Z,33.40
2019-05-15T18:58:29.820Z,34.20
2019-05-15T19:00:39.965Z,32.88
2019-05-15T19:02:48.577Z,33.10
2019-05-15T19:04:58.739Z,34.88
2019-05-15T19:07:08.699Z,43.87
2019-05-15T19:09:15.948Z,46.25
2019-05-15T19:11:23.924Z,54.73
2019-05-15T19:13:31.831Z,53.45
2019-05-15T19:15:39.973Z,55.65
2019-05-15T19:17:47.903Z,63.42
2019-05-15T19:19:58.708Z,64.97
2019-05-15T19:22:08.771Z,81.75
2019-05-15T19:24:18.559Z,73.33
2019-05-15T19:26:28.969Z,73.12
2019-05-15T19:28:39.151Z,55.23
2019-05-15T19:30:48.100Z,53.23
2019-05-15T19:32:58.558Z,53.95
2019-05-15T19:35:08.020Z,87.70
2019-05-15T19:37:18.329Z,53.25
2019-05-15T19:39:27.959Z,49.40
2019-05-15T19:41:38.113Z,59.65
2019-05-15T19:43:46.065Z,31.95
2019-05-15T19:45:54.173Z,35.70
2019-05-15T19:48:02.199Z,34.48
2019-05-15T19:50:11.107Z,30.75
2019-05-15T19:52:21.104Z,30.60
2019-05-15T19:54:29.891Z,52.75
2019-05-15T19:56:38.020Z,49.00
2019-05-15T19:58:47.637Z,46.92
2019-05-15T20:00:55.660Z,49.23
2019-05-15T20:03:03.603Z,46.20
2019-05-15T20:05:12.702Z,28.57
2019-05-15T20:07:20.760Z,30.35
2019-05-15T20:09:28.715Z,26.73
2019-05-15T20:11:38.487Z,29.82
2019-05-15T20:13:48.784Z,29.27
2019-05-15T20:15:58.042Z,28.47
2019-05-15T20:18:07.953Z,39.42
2019-05-15T20:20:18.721Z,54.53
2019-05-15T20:22:28.390Z,37.17
2019-05-15T20:24:38.213Z,36.75
2019-05-15T20:26:48.587Z,55.35
2019-05-15T20:28:56.227Z,51.90
2019-05-15T20:31:04.443Z,41.65
2019-05-15T20:33:12.409Z,47.08
2019-05-15T20:35:21.208Z,29.90
2019-05-15T20:37:30.306Z,29.48
2019-05-15T20:39:38.686Z,31.15
2019-05-15T20:41:48.726Z,28.00
2019-05-15T20:43:58.281Z,24.92
2019-05-15T20:46:08.306Z,25.55
2019-05-15T20:48:18.204Z,28.57
2019-05-15T20:50:28.085Z,35.10
2019-05-15T20:52:35.337Z,27.22
2019-05-15T20:54:43.224Z,27.32
2019-05-15T20:56:51.445Z,25.57
2019-05-15T20:58:59.400Z,28.90
2019-05-15T21:01:09.195Z,28.02
2019-05-15T21:03:17.943Z,26.37
2019-05-15T21:05:27.858Z,27.27
2019-05-15T21:07:39.255Z,31.15
2019-05-15T21:09:45.222Z,26.20
2019-05-15T21:11:53.112Z,23.75
2019-05-15T21:14:01.011Z,29.45
2019-05-15T21:16:09.159Z,28.32
2019-05-15T21:18:17.610Z,27.98
2019-05-15T21:20:28.814Z,31.65
2019-05-15T21:22:40.255Z,26.50
2019-05-15T21:24:47.522Z,24.05
2019-05-15T21:26:58.046Z,24.12
2019-05-15T21:29:05.123Z,21.07
2019-05-15T21:31:13.174Z,22.73
2019-05-15T21:33:21.152Z,22.25
2019-05-15T21:35:30.549Z,23.40
2019-05-15T21:37:41.335Z,35.95
2019-05-15T21:39:50.383Z,21.45
2019-05-15T21:41:58.426Z,27.15
2019-05-15T21:44:08.521Z,22.17
2019-05-15T21:46:16.094Z,22.05
2019-05-15T21:48:24.119Z,23.95
2019-05-15T21:50:32.352Z,28.77
2019-05-15T21:52:40.311Z,36.45
2019-05-15T21:54:50.415Z,27.60
2019-05-15T21:57:12.864Z,27.75
2019-05-15T21:59:08.608Z,25.10
2019-05-15T22:01:19.709Z,32.88
2019-05-15T22:05:53.922Z,30.05
2019-05-15T22:08:02.117Z,34.18
2019-05-15T22:10:11.055Z,31.50
2019-05-15T22:12:19.725Z,38.17
2019-05-15T22:14:27.723Z,36.05
2019-05-15T22:16:35.695Z,38.38
2019-05-15T22:18:43.714Z,29.87
2019-05-15T22:20:51.822Z,34.25
2019-05-15T22:23:00.855Z,34.03
2019-05-15T22:25:11.298Z,32.25
2019-05-15T22:27:21.075Z,31.80
2019-05-15T22:29:29.039Z,38.33
2019-05-15T22:31:37.986Z,40.28
2019-05-15T22:33:47.964Z,45.25
2019-05-15T22:35:56.172Z,40.33
2019-05-15T22:38:08.731Z,47.40
2019-05-15T22:40:18.298Z,41.18
2019-05-15T22:42:31.283Z,48.40
2019-05-15T22:44:38.377Z,43.58
2019-05-15T22:46:48.622Z,50.48
2019-05-15T22:48:58.888Z,39.98
2019-05-15T22:51:06.523Z,49.08
2019-05-15T22:53:14.806Z,52.10
2019-05-15T22:55:23.051Z,51.37
2019-05-15T22:57:31.355Z,49.10
2019-05-15T22:59:39.353Z,48.63
2019-05-15T23:01:49.325Z,48.23
2019-05-15T23:03:58.348Z,53.70
2019-05-15T23:06:08.318Z,46.20
2019-05-15T23:08:18.424Z,54.63
2019-05-15T23:10:28.930Z,51.28
2019-05-15T23:12:35.622Z,53.42
2019-05-15T23:14:45.150Z,56.37
2019-05-15T23:16:53.027Z,49.63
2019-05-15T23:19:01.100Z,47.35
2019-05-15T23:21:09.076Z,50.23
2019-05-15T23:23:18.267Z,52.43
2019-05-15T23:25:28.683Z,46.58
2019-05-15T23:27:38.123Z,43.00
2019-05-15T23:29:46.201Z,43.70
2019-05-15T23:31:54.106Z,49.63
2019-05-15T23:34:01.993Z,42.05
2019-05-15T23:36:10.212Z,53.55
2019-05-15T23:38:18.309Z,59.27
2019-05-15T23:40:28.521Z,61.30
2019-05-15T23:42:38.631Z,66.75
2019-05-15T23:44:45.563Z,64.20
2019-05-15T23:46:55.142Z,59.95
2019-05-15T23:49:03.026Z,58.08
2019-05-15T23:51:10.934Z,58.58
2019-05-15T23:53:19.685Z,56.98
2019-05-15T23:55:28.610Z,53.25
2019-05-15T23:57:38.986Z,57.00
2019-05-15T23:59:47.761Z,54.08
